Time,TemperatureF,DewpointF,PressureIn,WindDirection,WindDirectionDegrees,WindSpeedMPH,WindSpeedGustMPH,Humidity,HourlyPrecipIn,Conditions,Clouds,dailyrainin,SoftwareType,DateUTC
2013-01-23 00:01:00,2.1,-4.2,30.09,WNW,302,1.3,6.3,74,0.00,,---,0.00,VWS V14.01,2013-01-23 05:01:00,
2013-01-23 00:06:00,1.9,-5.0,30.09,West,271,6.3,6.3,72,0.00,,---,0.00,VWS V14.01,2013-01-23 05:06:00,
2013-01-23 00:10:00,1.9,-5.0,30.09,NW,307,4.0,6.7,72,0.00,,---,0.00,VWS V14.01,2013-01-23 05:10:00,
2013-01-23 00:15:00,2.1,-4.8,30.09,WNW,294,0.0,6.3,72,0.00,,---,0.00,VWS V14.01,2013-01-23 05:15:00,
2013-01-23 00:20:00,2.3,-4.6,30.09,WNW,285,2.2,4.9,72,0.00,,---,0.00,VWS V14.01,2013-01-23 05:20:00,
2013-01-23 00:26:00,2.3,-5.5,30.09,West,277,4.5,8.1,69,0.00,,---,0.00,VWS V14.01,2013-01-23 05:26:00,
2013-01-23 00:36:00,2.5,-5.3,30.09,North,1,4.0,6.3,69,0.00,,---,0.00,VWS V14.01,2013-01-23 05:36:00,
2013-01-23 00:45:00,2.1,-3.2,30.09,North,9,2.2,5.4,78,0.00,,---,0.00,VWS V14.01,2013-01-23 05:45:00,
2013-01-23 00:51:00,1.9,-3.3,30.09,North,9,3.1,4.5,78,0.00,,---,0.00,VWS V14.01,2013-01-23 05:51:00,
2013-01-23 01:00:00,1.8,-3.0,30.09,NNE,15,1.8,5.4,80,0.00,,---,0.00,VWS V14.01,2013-01-23 06:00:00,
2013-01-23 01:05:00,1.8,-3.0,30.09,NNE,15,1.8,4.0,80,0.00,,---,0.00,VWS V14.01,2013-01-23 06:05:00,
2013-01-23 01:11:00,1.8,-3.0,30.09,NNE,15,2.2,3.6,80,0.00,,---,0.00,VWS V14.01,2013-01-23 06:11:00,
2013-01-23 01:21:00,1.9,-2.8,30.09,NNE,15,3.6,4.9,80,0.00,,---,0.00,VWS V14.01,2013-01-23 06:21:00,
2013-01-23 01:31:00,1.8,-3.2,30.09,NNW,335,3.1,5.8,79,0.00,,---,0.00,VWS V14.01,2013-01-23 06:31:00,
2013-01-23 01:40:00,1.4,-3.3,30.09,NNE,19,3.1,4.9,80,0.00,,---,0.00,VWS V14.01,2013-01-23 06:40:00,
2013-01-23 01:45:00,1.4,-3.1,30.09,NNE,21,3.6,6.3,81,0.00,,---,0.00,VWS V14.01,2013-01-23 06:45:00,
2013-01-23 01:50:00,1.0,-3.4,30.09,NNE,19,1.3,5.4,81,0.00,,---,0.00,VWS V14.01,2013-01-23 06:50:00,
2013-01-23 01:56:00,1.0,-3.4,30.09,NNE,19,1.8,3.6,81,0.00,,---,0.00,VWS V14.01,2013-01-23 06:56:00,
2013-01-23 02:11:00,1.2,-3.0,30.09,North,353,2.7,4.5,82,0.00,,---,0.00,VWS V14.01,2013-01-23 07:11:00,
2013-01-23 02:16:00,1.4,-3.1,30.09,NW,304,2.2,6.3,81,0.00,,---,0.00,VWS V14.01,2013-01-23 07:16:00,
2013-01-23 02:26:00,1.4,-3.1,30.09,NNW,329,3.6,5.4,81,0.00,,---,0.00,VWS V14.01,2013-01-23 07:26:00,
2013-01-23 02:36:00,1.6,-3.2,30.12,NW,318,3.6,7.2,80,0.00,,---,0.00,VWS V14.01,2013-01-23 07:36:00,
2013-01-23 02:46:00,1.4,-3.6,30.12,WNW,297,2.2,8.9,79,0.00,,---,0.00,VWS V14.01,2013-01-23 07:46:00,
2013-01-23 02:51:00,1.4,-3.8,30.12,NW,308,10.7,12.5,78,0.00,,---,0.00,VWS V14.01,2013-01-23 07:51:00,
2013-01-23 03:01:00,1.0,-4.2,30.12,NW,319,7.2,8.9,78,0.00,,---,0.00,VWS V14.01,2013-01-23 08:01:00,
2013-01-23 03:06:00,1.0,-4.2,30.12,NW,304,4.9,10.7,78,0.00,,---,0.00,VWS V14.01,2013-01-23 08:06:00,
2013-01-23 03:11:00,1.0,-4.2,30.12,NW,325,4.9,8.1,78,0.00,,---,0.00,VWS V14.01,2013-01-23 08:11:00,
2013-01-23 03:21:00,0.9,-4.4,30.12,WNW,297,5.4,8.9,78,0.00,,---,0.00,VWS V14.01,2013-01-23 08:21:00,
2013-01-23 03:26:00,0.9,-4.4,30.12,WNW,297,5.8,7.2,78,0.00,,---,0.00,VWS V14.01,2013-01-23 08:26:00,
2013-01-23 03:31:00,0.9,-4.4,30.09,NNW,339,6.7,7.6,78,0.00,,---,0.00,VWS V14.01,2013-01-23 08:31:00,
2013-01-23 03:41:00,0.9,-4.1,30.09,WNW,288,2.2,8.1,79,0.00,,---,0.00,VWS V14.01,2013-01-23 08:41:00,
2013-01-23 03:51:00,0.9,-4.1,30.09,NW,318,4.0,8.5,79,0.00,,---,0.00,VWS V14.01,2013-01-23 08:51:00,
2013-01-23 03:56:00,0.9,-3.8,30.09,NW,316,0.0,4.5,80,0.00,,---,0.00,VWS V14.01,2013-01-23 08:56:00,
2013-01-23 04:06:00,0.9,-3.8,30.09,NW,319,0.0,3.6,80,0.00,,---,0.00,VWS V14.01,2013-01-23 09:06:00,
2013-01-23 04:16:00,0.9,-4.1,30.09,NW,311,5.4,7.2,79,0.00,,---,0.00,VWS V14.01,2013-01-23 09:16:00,
2013-01-23 04:26:00,0.9,-4.1,30.09,NNW,328,4.9,7.6,79,0.00,,---,0.00,VWS V14.01,2013-01-23 09:26:00,
2013-01-23 04:31:00,0.9,-4.1,30.09,NW,316,5.4,8.1,79,0.00,,---,0.00,VWS V14.01,2013-01-23 09:31:00,
2013-01-23 04:41:00,0.7,-4.6,30.09,NW,307,1.8,5.4,78,0.00,,---,0.00,VWS V14.01,2013-01-23 09:41:00,
2013-01-23 04:46:00,0.7,-4.6,30.09,WNW,294,6.3,9.4,78,0.00,,---,0.00,VWS V14.01,2013-01-23 09:46:00,
2013-01-23 04:56:00,0.5,-4.5,30.09,NNW,332,1.3,4.9,79,0.00,,---,0.00,VWS V14.01,2013-01-23 09:56:00,
2013-01-23 05:01:00,0.3,-4.6,30.09,West,269,3.6,4.9,79,0.00,,---,0.00,VWS V14.01,2013-01-23 10:01:00,
2013-01-23 05:11:00,0.1,-4.8,30.09,NNW,333,4.9,9.4,79,0.00,,---,0.00,VWS V14.01,2013-01-23 10:11:00,
2013-01-23 05:21:00,0.1,-4.8,30.12,WSW,252,3.1,4.9,79,0.00,,---,0.00,VWS V14.01,2013-01-23 10:21:00,
2013-01-23 05:31:00,0.1,-4.8,30.12,WNW,297,2.2,5.8,79,0.00,,---,0.00,VWS V14.01,2013-01-23 10:31:00,
2013-01-23 05:41:00,0.1,-4.8,30.12,NNW,330,4.0,8.1,79,0.00,,---,0.00,VWS V14.01,2013-01-23 10:41:00,
2013-01-23 05:51:00,0.0,-5.0,30.12,NW,304,3.1,6.3,79,0.00,,---,0.00,VWS V14.01,2013-01-23 10:51:00,
2013-01-23 05:56:00,-0.2,-5.2,30.12,NW,305,4.5,7.2,79,0.00,,---,0.00,VWS V14.01,2013-01-23 10:56:00,
2013-01-23 06:01:00,-0.2,-5.2,30.12,NNW,336,4.5,9.4,79,0.00,,---,0.00,VWS V14.01,2013-01-23 11:01:00,
2013-01-23 06:06:00,-0.4,-5.3,30.12,NW,326,4.5,6.3,79,0.00,,---,0.00,VWS V14.01,2013-01-23 11:06:00,
2013-01-23 06:16:00,-0.6,-5.5,30.12,NNW,328,5.8,8.1,79,0.00,,---,0.00,VWS V14.01,2013-01-23 11:16:00,
2013-01-23 06:26:00,-0.8,-5.7,30.12,NW,323,8.1,8.1,79,0.00,,---,0.00,VWS V14.01,2013-01-23 11:26:00,
2013-01-23 06:36:00,-0.6,-5.5,30.12,NW,307,1.3,6.3,79,0.00,,---,0.00,VWS V14.01,2013-01-23 11:36:00,
2013-01-23 06:46:00,-0.8,-5.7,30.12,NW,316,4.9,7.2,79,0.00,,---,0.00,VWS V14.01,2013-01-23 11:46:00,
2013-01-23 06:56:00,-0.8,-5.7,30.12,NW,312,3.6,7.2,79,0.00,,---,0.00,VWS V14.01,2013-01-23 11:56:00,
2013-01-23 07:01:00,-0.8,-5.7,30.12,NW,321,4.5,6.3,79,0.00,,---,0.00,VWS V14.01,2013-01-23 12:01:00,
2013-01-23 07:06:00,-0.6,-5.5,30.12,NW,311,3.1,5.8,79,0.00,,---,0.00,VWS V14.01,2013-01-23 12:06:00,
2013-01-23 07:11:00,-0.6,-5.5,30.12,NW,312,3.6,5.4,79,0.00,,---,0.00,VWS V14.01,2013-01-23 12:11:00,
2013-01-23 07:21:00,-0.9,-5.9,30.12,NW,314,3.6,5.8,79,0.00,,---,0.00,VWS V14.01,2013-01-23 12:21:00,
2013-01-23 07:31:00,-0.9,-5.9,30.12,NW,312,3.1,6.7,79,0.00,,---,0.00,VWS V14.01,2013-01-23 12:31:00,
2013-01-23 07:41:00,-0.9,-5.9,30.12,NNW,328,3.6,5.4,79,0.00,,---,0.00,VWS V14.01,2013-01-23 12:41:00,
2013-01-23 07:51:00,-0.6,-5.5,30.12,NNW,330,2.7,5.4,79,0.00,,---,0.00,VWS V14.01,2013-01-23 12:51:00,
2013-01-23 07:56:00,-0.8,-5.7,30.12,NNW,330,3.1,3.1,79,0.00,,---,0.00,VWS V14.01,2013-01-23 12:56:00,
2013-01-23 08:01:00,-0.6,-5.5,30.12,NNW,328,1.3,4.9,79,0.00,,---,0.00,VWS V14.01,2013-01-23 13:01:00,
2013-01-23 08:06:00,-0.8,-5.7,30.12,NNW,329,3.1,3.6,79,0.00,,---,0.00,VWS V14.01,2013-01-23 13:06:00,
2013-01-23 08:16:00,-0.4,-5.3,30.12,NNE,12,2.7,5.4,79,0.00,,---,0.00,VWS V14.01,2013-01-23 13:16:00,
2013-01-23 08:26:00,0.0,-5.0,30.12,NNW,339,3.6,6.3,79,0.00,,---,0.00,VWS V14.01,2013-01-23 13:26:00,
2013-01-23 08:36:00,-0.4,-5.3,30.15,North,359,5.4,7.6,79,0.00,,---,0.00,VWS V14.01,2013-01-23 13:36:00,
2013-01-23 08:41:00,-0.9,-5.9,30.15,North,359,4.0,8.1,79,0.00,,---,0.00,VWS V14.01,2013-01-23 13:41:00,
2013-01-23 08:46:00,-1.5,-6.4,30.15,NNE,25,5.8,7.2,79,0.00,,---,0.00,VWS V14.01,2013-01-23 13:46:00,
2013-01-23 08:56:00,-1.8,-6.8,30.15,NNE,26,4.5,6.7,79,0.00,,---,0.00,VWS V14.01,2013-01-23 13:56:00,
2013-01-23 09:01:00,-1.7,-6.6,30.15,NNE,30,1.8,4.5,79,0.00,,---,0.00,VWS V14.01,2013-01-23 14:01:00,
2013-01-23 09:11:00,-0.2,-5.2,30.15,NNW,340,1.8,6.7,79,0.00,,---,0.00,VWS V14.01,2013-01-23 14:11:00,
2013-01-23 09:21:00,0.9,-5.5,30.15,NW,326,11.6,11.6,74,0.00,,---,0.00,VWS V14.01,2013-01-23 14:21:00,
2013-01-23 09:31:00,2.3,-4.6,30.15,NW,319,3.6,9.8,72,0.00,,---,0.00,VWS V14.01,2013-01-23 14:31:00,
2013-01-23 09:41:00,3.2,-4.7,30.15,North,359,0.4,9.4,69,0.00,,---,0.00,VWS V14.01,2013-01-23 14:41:00,
2013-01-23 09:51:00,3.6,-5.2,30.15,North,9,4.9,10.7,66,0.00,,---,0.00,VWS V14.01,2013-01-23 14:51:00,
2013-01-23 09:56:00,4.1,-4.7,30.15,NNW,343,4.0,8.5,66,0.00,,---,0.00,VWS V14.01,2013-01-23 14:56:00,
2013-01-23 10:01:00,3.6,-5.2,30.15,NW,305,4.0,8.9,66,0.00,,---,0.00,VWS V14.01,2013-01-23 15:01:00,
2013-01-23 10:06:00,3.9,-4.9,30.15,NW,309,12.5,12.5,66,0.00,,---,0.00,VWS V14.01,2013-01-23 15:06:00,
2013-01-23 10:21:00,5.0,-3.9,30.18,North,5,1.8,8.9,66,0.00,,---,0.00,VWS V14.01,2013-01-23 15:21:00,
2013-01-23 10:26:00,5.4,-3.5,30.18,North,359,4.5,7.2,66,0.00,,---,0.00,VWS V14.01,2013-01-23 15:26:00,
2013-01-23 10:36:00,2.7,-6.1,30.18,North,4,7.6,10.3,66,0.00,,---,0.00,VWS V14.01,2013-01-23 15:36:00,
2013-01-23 10:46:00,3.2,-5.6,30.18,NW,319,8.5,9.4,66,0.00,,---,0.00,VWS V14.01,2013-01-23 15:46:00,
2013-01-23 10:56:00,4.6,-4.2,30.18,North,11,4.5,8.5,66,0.00,,---,0.00,VWS V14.01,2013-01-23 15:56:00,
2013-01-23 11:01:00,3.6,-5.2,30.18,NNE,16,8.9,12.1,66,0.00,,---,0.00,VWS V14.01,2013-01-23 16:01:00,
2013-01-23 11:06:00,3.2,-5.6,30.18,North,360,4.0,9.4,66,0.00,,---,0.00,VWS V14.01,2013-01-23 16:06:00,
2013-01-23 11:11:00,4.1,-4.7,30.18,North,11,6.3,10.7,66,0.00,,---,0.00,VWS V14.01,2013-01-23 16:11:00,
2013-01-23 11:21:00,4.3,-5.5,30.15,North,9,8.1,13.0,63,0.00,,---,0.00,VWS V14.01,2013-01-23 16:21:00,
2013-01-23 11:31:00,4.3,-5.5,30.15,NNE,23,2.7,12.5,63,0.00,,---,0.00,VWS V14.01,2013-01-23 16:31:00,
2013-01-23 11:41:00,4.1,-5.4,30.15,North,360,7.2,14.3,64,0.00,,---,0.00,VWS V14.01,2013-01-23 16:41:00,
2013-01-23 11:51:00,4.5,-5.3,30.15,North,356,5.8,15.2,63,0.00,,---,0.00,VWS V14.01,2013-01-23 16:51:00,
2013-01-23 12:01:00,5.7,-4.1,30.15,North,360,12.1,15.2,63,0.00,,---,0.00,VWS V14.01,2013-01-23 17:01:00,
2013-01-23 12:06:00,4.8,-5.0,30.15,North,4,10.7,14.3,63,0.00,,---,0.00,VWS V14.01,2013-01-23 17:06:00,
2013-01-23 12:11:00,4.1,-5.4,30.15,NNW,328,12.1,12.1,64,0.00,,---,0.00,VWS V14.01,2013-01-23 17:11:00,
2013-01-23 12:16:00,5.2,-4.7,30.15,NNW,345,0.9,12.1,63,0.00,,---,0.00,VWS V14.01,2013-01-23 17:16:00,
2013-01-23 12:26:00,5.5,-4.3,30.15,NNE,29,4.0,13.0,63,0.00,,---,0.00,VWS V14.01,2013-01-23 17:26:00,
2013-01-23 12:36:00,4.6,-5.2,30.15,North,359,8.9,14.3,63,0.00,,---,0.00,VWS V14.01,2013-01-23 17:36:00,
2013-01-23 12:41:00,4.8,-5.0,30.15,NNW,345,7.6,13.0,63,0.00,,---,0.00,VWS V14.01,2013-01-23 17:41:00,
2013-01-23 12:46:00,4.8,-5.0,30.12,NW,323,11.2,11.6,63,0.00,,---,0.00,VWS V14.01,2013-01-23 17:46:00,
2013-01-23 12:56:00,5.0,-4.8,30.12,WNW,294,9.8,14.3,63,0.00,,---,0.00,VWS V14.01,2013-01-23 17:56:00,
2013-01-23 13:06:00,6.1,-3.8,30.15,NNW,345,7.6,12.1,63,0.00,,---,0.00,VWS V14.01,2013-01-23 18:06:00,
2013-01-23 13:11:00,5.0,-4.8,30.15,NW,326,9.4,14.3,63,0.00,,---,0.00,VWS V14.01,2013-01-23 18:11:00,
2013-01-23 13:16:00,4.8,-5.0,30.12,NNE,25,10.3,11.6,63,0.00,,---,0.00,VWS V14.01,2013-01-23 18:16:00,
2013-01-23 13:21:00,5.0,-4.8,30.12,North,1,5.8,10.3,63,0.00,,---,0.00,VWS V14.01,2013-01-23 18:21:00,
2013-01-23 13:31:00,6.4,-3.5,30.12,North,5,4.0,10.7,63,0.00,,---,0.00,VWS V14.01,2013-01-23 18:31:00,
2013-01-23 13:41:00,6.3,-3.6,30.12,NNW,345,8.5,8.9,63,0.00,,---,0.00,VWS V14.01,2013-01-23 18:41:00,
2013-01-23 13:51:00,5.9,-4.0,30.12,North,350,3.1,9.8,63,0.00,,---,0.00,VWS V14.01,2013-01-23 18:51:00,
2013-01-23 14:01:00,5.7,-4.1,30.12,NNE,15,6.7,7.6,63,0.00,,---,0.00,VWS V14.01,2013-01-23 19:01:00,
2013-01-23 14:06:00,4.6,-5.2,30.12,NNW,340,4.5,7.2,63,0.00,,---,0.00,VWS V14.01,2013-01-23 19:06:00,
2013-01-23 14:11:00,3.6,-5.9,30.12,NNW,329,4.0,10.3,64,0.00,,---,0.00,VWS V14.01,2013-01-23 19:11:00,
2013-01-23 14:16:00,3.6,-5.9,30.12,North,359,4.5,7.6,64,0.00,,---,0.00,VWS V14.01,2013-01-23 19:16:00,
2013-01-23 14:26:00,4.5,-5.3,30.12,NNW,339,2.7,8.5,63,0.00,,---,0.00,VWS V14.01,2013-01-23 19:26:00,
2013-01-23 14:31:00,4.5,-5.3,30.12,NW,319,4.5,8.1,63,0.00,,---,0.00,VWS V14.01,2013-01-23 19:31:00,
2013-01-23 14:36:00,3.9,-5.5,30.12,NW,326,4.0,7.2,64,0.00,,---,0.00,VWS V14.01,2013-01-23 19:36:00,
2013-01-23 14:41:00,3.2,-6.2,30.12,NNW,336,6.7,8.1,64,0.00,,---,0.00,VWS V14.01,2013-01-23 19:41:00,
2013-01-23 14:46:00,3.4,-6.1,30.12,NNE,28,3.1,6.7,64,0.00,,---,0.00,VWS V14.01,2013-01-23 19:46:00,
2013-01-23 14:51:00,3.7,-5.7,30.12,North,353,2.2,6.3,64,0.00,,---,0.00,VWS V14.01,2013-01-23 19:51:00,
2013-01-23 14:56:00,3.4,-6.1,30.12,North,359,3.1,5.8,64,0.00,,---,0.00,VWS V14.01,2013-01-23 19:56:00,
2013-01-23 15:06:00,3.0,-6.4,30.12,NNE,14,4.0,5.8,64,0.00,,---,0.00,VWS V14.01,2013-01-23 20:06:00,
2013-01-23 15:16:00,3.4,-6.1,30.12,North,359,3.1,6.3,64,0.00,,---,0.00,VWS V14.01,2013-01-23 20:16:00,
2013-01-23 15:26:00,3.4,-6.1,30.12,North,360,4.9,5.4,64,0.00,,---,0.00,VWS V14.01,2013-01-23 20:26:00,
2013-01-23 15:36:00,3.0,-6.4,30.12,NNW,343,2.7,7.2,64,0.00,,---,0.00,VWS V14.01,2013-01-23 20:36:00,
2013-01-23 15:46:00,2.8,-6.6,30.12,NE,42,4.0,5.4,64,0.00,,---,0.00,VWS V14.01,2013-01-23 20:46:00,
2013-01-23 15:56:00,3.0,-6.4,30.12,NE,45,2.7,4.0,64,0.00,,---,0.00,VWS V14.01,2013-01-23 20:56:00,
2013-01-23 16:01:00,3.0,-6.4,30.12,NE,49,3.6,4.9,64,0.00,,---,0.00,VWS V14.01,2013-01-23 21:01:00,
2013-01-23 16:11:00,2.8,-6.6,30.12,NE,47,2.7,4.0,64,0.00,,---,0.00,VWS V14.01,2013-01-23 21:11:00,
2013-01-23 16:21:00,2.1,-7.2,30.12,NE,47,1.8,2.7,64,0.00,,---,0.00,VWS V14.01,2013-01-23 21:21:00,
2013-01-23 16:31:00,1.6,-7.8,30.12,NE,47,2.2,2.2,64,0.00,,---,0.00,VWS V14.01,2013-01-23 21:31:00,
2013-01-23 16:36:00,-0.2,-9.5,30.12,NE,47,1.8,2.2,64,0.00,,---,0.00,VWS V14.01,2013-01-23 21:36:00,
2013-01-23 16:41:00,-1.8,-11.0,30.12,NE,46,0.9,2.7,64,0.00,,---,0.00,VWS V14.01,2013-01-23 21:41:00,
2013-01-23 16:51:00,-3.1,-12.2,30.12,NE,46,0.4,1.8,64,0.00,,---,0.00,VWS V14.01,2013-01-23 21:51:00,
2013-01-23 17:01:00,-4.2,-13.3,30.12,NE,46,0.0,0.0,64,0.00,,---,0.00,VWS V14.01,2013-01-23 22:01:00,
2013-01-23 17:11:00,-4.4,-13.4,30.12,NE,46,0.0,0.0,64,0.00,,---,0.00,VWS V14.01,2013-01-23 22:11:00,
2013-01-23 17:21:00,-5.3,-14.3,30.12,NE,46,0.0,0.0,64,0.00,,---,0.00,VWS V14.01,2013-01-23 22:21:00,
2013-01-23 19:21:00,-7.4,-16.4,30.12,ENE,61,0.0,0.0,64,0.00,,---,0.00,VWS V14.01,2013-01-24 00:21:00,
2013-01-23 19:31:00,-8.1,-17.0,30.12,ENE,61,0.0,0.0,64,0.00,,---,0.00,VWS V14.01,2013-01-24 00:31:00,
2013-01-23 19:51:00,-10.1,-18.9,30.12,ENE,61,0.0,0.0,64,0.00,,---,0.00,VWS V14.01,2013-01-24 00:51:00,
2013-01-23 19:56:00,-8.7,-17.6,30.12,ENE,61,0.0,0.0,64,0.00,,---,0.00,VWS V14.01,2013-01-24 00:56:00,
2013-01-23 20:01:00,-8.1,-17.0,30.12,East,83,3.1,3.6,64,0.00,,---,0.00,VWS V14.01,2013-01-24 01:01:00,
2013-01-23 20:11:00,-8.1,-17.0,30.12,SSE,161,0.0,3.6,64,0.00,,---,0.00,VWS V14.01,2013-01-24 01:11:00,
2013-01-23 20:16:00,-9.0,-17.9,30.12,SSE,161,3.6,3.6,64,0.00,,---,0.00,VWS V14.01,2013-01-24 01:16:00,
2013-01-23 20:26:00,-8.5,-17.4,30.12,SSE,163,3.1,4.0,64,0.00,,---,0.00,VWS V14.01,2013-01-24 01:26:00,
2013-01-23 20:36:00,-8.1,-17.0,30.12,SSE,163,3.6,4.0,64,0.00,,---,0.00,VWS V14.01,2013-01-24 01:36:00,
2013-01-23 20:41:00,-8.1,-17.0,30.12,SSE,163,2.2,4.0,64,0.00,,---,0.00,VWS V14.01,2013-01-24 01:41:00,
2013-01-23 20:46:00,-8.9,-17.7,30.12,SSE,163,3.1,3.6,64,0.00,,---,0.00,VWS V14.01,2013-01-24 01:46:00,
2013-01-23 20:51:00,-9.0,-17.9,30.12,SSE,163,2.7,3.6,64,0.00,,---,0.00,VWS V14.01,2013-01-24 01:51:00,
2013-01-23 21:01:00,-8.9,-17.7,30.12,South,176,4.0,4.9,64,0.00,,---,0.00,VWS V14.01,2013-01-24 02:01:00,
2013-01-23 21:11:00,-8.3,-17.2,30.12,SSW,192,3.6,4.9,64,0.00,,---,0.00,VWS V14.01,2013-01-24 02:11:00,
2013-01-23 21:21:00,-8.3,-17.2,30.12,SSW,192,2.2,4.5,64,0.00,,---,0.00,VWS V14.01,2013-01-24 02:21:00,
2013-01-23 21:26:00,-8.7,-17.6,30.12,SSW,192,3.6,4.9,64,0.00,,---,0.00,VWS V14.01,2013-01-24 02:26:00,
2013-01-23 21:31:00,-9.4,-18.2,30.12,South,188,4.5,5.4,64,0.00,,---,0.00,VWS V14.01,2013-01-24 02:31:00,
2013-01-23 21:36:00,-9.8,-18.6,30.12,South,190,4.0,7.2,64,0.00,,---,0.00,VWS V14.01,2013-01-24 02:36:00,
2013-01-23 21:41:00,-9.9,-18.8,30.12,South,190,4.5,5.4,64,0.00,,---,0.00,VWS V14.01,2013-01-24 02:41:00,
2013-01-23 21:46:00,-9.9,-18.8,30.12,South,190,4.0,4.5,64,0.00,,---,0.00,VWS V14.01,2013-01-24 02:46:00,
2013-01-23 21:56:00,-9.0,-17.9,30.12,South,190,4.0,5.8,64,0.00,,---,0.00,VWS V14.01,2013-01-24 02:56:00,
2013-01-23 22:06:00,-10.7,-19.5,30.12,SSE,166,3.1,4.5,64,0.00,,---,0.00,VWS V14.01,2013-01-24 03:06:00,
2013-01-23 22:16:00,-10.5,-19.3,30.12,SSE,166,4.5,4.9,64,0.00,,---,0.00,VWS V14.01,2013-01-24 03:16:00,
2013-01-23 22:21:00,-10.7,-19.5,30.12,SSE,166,4.0,4.5,64,0.00,,---,0.00,VWS V14.01,2013-01-24 03:21:00,
2013-01-23 22:36:00,-10.7,-19.5,30.12,South,183,4.5,5.4,64,0.00,,---,0.00,VWS V14.01,2013-01-24 03:36:00,
2013-01-23 22:41:00,-10.7,-19.5,30.12,South,185,4.5,5.4,64,0.00,,---,0.00,VWS V14.01,2013-01-24 03:41:00,
2013-01-23 22:46:00,-10.5,-19.3,30.12,South,185,4.0,4.9,64,0.00,,---,0.00,VWS V14.01,2013-01-24 03:46:00,
2013-01-23 22:56:00,-11.9,-20.7,30.12,South,184,2.2,3.1,64,0.00,,---,0.00,VWS V14.01,2013-01-24 03:56:00,
2013-01-23 23:06:00,-13.2,-21.9,30.12,South,180,3.6,4.5,64,0.00,,---,0.00,VWS V14.01,2013-01-24 04:06:00,
2013-01-23 23:16:00,-12.1,-20.8,30.12,South,181,3.1,4.5,64,0.00,,---,0.00,VWS V14.01,2013-01-24 04:16:00,
2013-01-23 23:26:00,-11.6,-20.3,30.12,South,190,5.8,7.2,64,0.00,,---,0.00,VWS V14.01,2013-01-24 04:26:00,
2013-01-23 23:31:00,-10.5,-19.3,30.12,SSW,207,7.6,8.1,64,0.00,,---,0.00,VWS V14.01,2013-01-24 04:31:00,
2013-01-23 23:41:00,-9.9,-18.8,30.12,SSW,201,7.2,8.1,64,0.00,,---,0.00,VWS V14.01,2013-01-24 04:41:00,
2013-01-23 23:56:00,-13.0,-21.7,30.12,South,174,2.7,4.0,64,0.00,,---,0.00,VWS V14.01,2013-01-24 04:56:00,